Time;durP1;ratioP1;P1;durP2;ratioP2;P2;SDS_P1;SDS_P2;PMS_P1;PMS_P2;Temp;Humidity;BMP_temperature;BMP_pressure;BME280_temperature;BME280_humidity;BME280_pressure;Samples;Min_cycle;Max_cycle;Signal;HPM_P1;HPM_P2
2021/09/14 00:02:26;;;;;;;4.58;2.05;;;;;;;13.45;85.11;99854.66;1598596;88;21585;-63
2021/09/14 00:04:53;;;;;;;3.53;1.87;;;;;;;13.45;85.11;99859.91;1636413;86;21045;-63
2021/09/14 00:07:19;;;;;;;3.67;2.42;;;;;;;13.47;85.18;99857.18;1599744;88;20970;-63
2021/09/14 00:09:46;;;;;;;8.05;2.55;;;;;;;13.48;85.16;99853.17;1626492;86;20973;-63
2021/09/14 00:12:13;;;;;;;6.63;2.77;;;;;;;13.50;85.18;99857.88;1625558;86;21029;-62
2021/09/14 00:14:39;;;;;;;5.83;1.80;;;;;;;13.54;85.22;99858.53;1626580;86;21475;-62
2021/09/14 00:17:06;;;;;;;6.62;2.27;;;;;;;13.55;85.25;99855.80;1635710;86;20946;-63
2021/09/14 00:19:33;;;;;;;2.98;2.10;;;;;;;13.55;85.17;99861.05;1639880;85;21599;-62
2021/09/14 00:22:00;;;;;;;4.90;2.20;;;;;;;13.56;85.31;99857.52;1601626;88;21016;-63
2021/09/14 00:24:26;;;;;;;7.12;2.17;;;;;;;13.57;85.23;99856.58;1624940;86;21034;-62
2021/09/14 00:26:53;;;;;;;5.35;1.80;;;;;;;13.58;85.23;99856.10;1638209;85;21430;-62
2021/09/14 00:29:19;;;;;;;5.73;2.87;;;;;;;13.56;85.21;99858.83;1637377;86;21501;-63
2021/09/14 00:31:46;;;;;;;4.83;1.93;;;;;;;13.57;85.31;99856.58;1638341;85;21022;-63
2021/09/14 00:34:12;;;;;;;4.73;2.13;;;;;;;13.60;85.39;99860.80;1639079;86;20969;-63
2021/09/14 00:36:39;;;;;;;5.90;2.10;;;;;;;13.62;85.41;99862.41;1636007;86;21156;-63
2021/09/14 00:39:06;;;;;;;4.43;1.90;;;;;;;13.64;85.41;99861.86;1639447;85;21479;-63
2021/09/14 00:41:33;;;;;;;5.35;2.30;;;;;;;13.64;85.36;99860.55;1639303;86;21018;-63
2021/09/14 00:44:03;;;;;;;7.08;1.95;;;;;;;13.61;85.29;99855.48;1637090;86;21128;-63
2021/09/14 00:46:30;;;;;;;3.67;1.90;;;;;;;13.59;85.34;99859.96;1632022;86;20963;-63
2021/09/14 00:48:57;;;;;;;6.10;2.20;;;;;;;13.58;85.54;99852.16;1637968;86;21509;-63
2021/09/14 00:51:24;;;;;;;4.07;2.10;;;;;;;13.59;85.52;99852.09;1633956;86;21475;-63
2021/09/14 00:53:51;;;;;;;5.22;2.15;;;;;;;13.57;85.38;99847.86;1600311;88;21271;-62
2021/09/14 00:56:18;;;;;;;4.97;2.70;;;;;;;13.56;85.50;99850.95;1624061;86;28230;-63
2021/09/14 00:58:47;;;;;;;7.50;2.50;;;;;;;13.56;85.44;99850.95;1622783;86;21584;-63
2021/09/14 01:01:14;;;;;;;5.45;1.95;;;;;;;13.41;85.14;99837.39;1619853;87;21176;-63
2021/09/14 01:03:41;;;;;;;6.70;2.20;;;;;;;13.41;85.14;99837.39;1625404;87;21532;-63
2021/09/14 01:06:07;;;;;;;4.30;2.10;;;;;;;13.48;85.44;99853.64;1619951;87;21043;-63
2021/09/14 01:08:36;;;;;;;4.70;2.20;;;;;;;13.44;85.48;99855.58;1618944;87;21047;-63
2021/09/14 01:11:04;;;;;;;5.72;2.37;;;;;;;13.42;85.50;99854.37;1619597;87;21526;-63
2021/09/14 01:13:31;;;;;;;6.17;2.50;;;;;;;13.43;85.63;99852.59;1621325;87;21577;-63
2021/09/14 01:16:11;;;;;;;4.10;2.33;;;;;;;13.41;85.59;99846.13;1619878;87;21460;-62
2021/09/14 01:18:36;;;;;;;10.03;2.80;;;;;;;13.41;85.71;99851.38;1621361;87;21149;-62
2021/09/14 01:21:03;;;;;;;6.50;2.67;;;;;;;13.40;85.68;99854.08;1621555;87;21018;-63
2021/09/14 01:23:30;;;;;;;5.03;2.35;;;;;;;13.39;85.73;99858.95;1615035;87;21026;-63
2021/09/14 01:25:57;;;;;;;8.38;2.65;;;;;;;13.37;85.76;99859.02;1616393;87;21026;-63
2021/09/14 01:28:23;;;;;;;7.53;3.43;;;;;;;13.38;85.89;99863.80;1632024;86;21472;-62
2021/09/14 01:30:51;;;;;;;5.80;2.50;;;;;;;13.37;85.76;99859.50;1618547;86;21044;-62
2021/09/14 01:33:17;;;;;;;6.92;2.85;;;;;;;13.34;85.82;99857.05;1632472;86;23614;-62
2021/09/14 01:35:44;;;;;;;5.20;2.33;;;;;;;13.31;85.69;99855.45;1621015;87;21073;-62
2021/09/14 01:38:11;;;;;;;6.55;2.52;;;;;;;13.29;85.79;99862.55;1619958;87;21009;-62
2021/09/14 01:40:38;;;;;;;4.53;2.50;;;;;;;13.25;85.85;99859.70;1616415;87;21087;-62
2021/09/14 01:43:06;;;;;;;6.47;2.52;;;;;;;13.28;86.00;99859.55;1576089;88;21834;-62
2021/09/14 01:45:33;;;;;;;4.00;2.42;;;;;;;13.28;86.11;99853.00;1628055;86;21524;-62
2021/09/14 01:48:00;;;;;;;5.17;2.45;;;;;;;13.31;86.12;99855.91;1622630;87;21113;-62
2021/09/14 01:50:28;;;;;;;7.25;3.17;;;;;;;13.32;86.17;99858.91;1623049;86;21081;-62
2021/09/14 01:52:55;;;;;;;3.30;2.75;;;;;;;13.34;86.26;99855.73;1617481;86;21034;-62
2021/09/14 01:55:22;;;;;;;4.12;2.50;;;;;;;13.35;86.20;99858.26;1620098;86;21046;-62
2021/09/14 01:57:50;;;;;;;4.07;2.20;;;;;;;13.37;86.30;99858.19;1627156;85;21065;-62
2021/09/14 02:00:23;;;;;;;7.87;2.27;;;;;;;13.37;86.21;99854.25;1632341;86;21022;-62
2021/09/14 02:03:06;;;;;;;5.00;2.58;;;;;;;13.37;86.28;99862.13;1633756;86;20991;-63
2021/09/14 02:24:37;;;;;;;4.83;2.90;;;;;;;13.46;86.41;99855.03;1620344;87;21514;-62
2021/09/14 02:58:37;;;;;;;4.50;3.25;;;;;;;13.38;86.83;99855.45;1639345;85;21069;-62
2021/09/14 02:59:12;;;;;;;4.28;3.20;;;;;;;13.38;86.83;99855.45;1629117;86;21647;-62
2021/09/14 03:01:39;;;;;;;4.58;3.42;;;;;;;13.49;86.96;99871.91;1622416;86;21584;-63
2021/09/14 03:04:08;;;;;;;5.27;3.50;;;;;;;13.51;86.95;99875.30;1622641;86;21014;-63
2021/09/14 03:06:34;;;;;;;6.05;3.77;;;;;;;13.51;86.95;99875.30;1621040;86;21747;-63
2021/09/14 03:09:01;;;;;;;5.00;3.30;;;;;;;13.52;86.96;99875.66;1620527;86;21353;-62
2021/09/14 03:11:27;;;;;;;6.13;3.00;;;;;;;13.55;87.04;99873.33;1619293;86;21727;-63
2021/09/14 03:13:55;;;;;;;3.47;2.95;;;;;;;13.55;86.91;99871.55;1632402;86;21009;-63
2021/09/14 03:16:22;;;;;;;3.65;3.02;;;;;;;13.52;86.84;99882.22;1590978;88;21173;-63
2021/09/14 03:18:49;;;;;;;3.93;2.73;;;;;;;13.51;86.96;99875.30;1620007;86;20965;-62
2021/09/14 03:21:16;;;;;;;6.08;3.30;;;;;;;13.46;86.97;99864.21;1623734;86;21375;-63
2021/09/14 03:23:42;;;;;;;;;;;;;;;13.51;87.05;99862.17;1638796;86;21518;-62
2021/09/14 03:26:09;;;;;;;7.45;2.98;;;;;;;13.52;86.93;99863.86;1641573;86;20664;-62
2021/09/14 03:28:36;;;;;;;4.80;3.40;;;;;;;13.49;86.96;99873.22;1627134;86;21037;-63
2021/09/14 03:31:05;;;;;;;3.42;2.83;;;;;;;13.47;86.96;99868.55;1615800;86;21010;-63
2021/09/14 03:33:31;;;;;;;6.35;3.20;;;;;;;13.47;87.11;99865.92;1652771;86;21724;-62
2021/09/14 03:35:58;;;;;;;4.58;2.62;;;;;;;13.38;87.07;99838.88;1651056;86;21482;-63
2021/09/14 03:38:25;;;;;;;7.03;3.13;;;;;;;13.52;87.17;99858.61;1631337;86;21088;-63
2021/09/14 03:40:51;;;;;;;3.53;2.53;;;;;;;13.49;87.11;99850.92;1626770;86;20922;-62
2021/09/14 03:43:18;;;;;;;3.12;2.52;;;;;;;13.50;87.13;99857.88;1639729;86;20981;-63
2021/09/14 03:45:47;;;;;;;3.92;2.95;;;;;;;13.47;87.02;99858.49;1599323;87;21086;-63
2021/09/14 03:48:15;;;;;;;5.40;2.80;;;;;;;13.45;87.09;99854.66;1621301;86;21178;-63
2021/09/14 03:50:42;;;;;;;5.87;2.67;;;;;;;13.45;87.23;99857.28;1621574;86;21013;-63
2021/09/14 03:53:10;;;;;;;4.22;2.52;;;;;;;13.49;87.41;99855.33;1620836;86;21021;-63
2021/09/14 03:55:37;;;;;;;4.25;2.77;;;;;;;13.53;87.30;99864.25;1607788;86;21010;-63
2021/09/14 03:58:04;;;;;;;4.60;2.70;;;;;;;13.57;87.38;99860.98;1629862;86;20993;-63
2021/09/14 04:00:30;;;;;;;5.33;2.57;;;;;;;13.59;87.39;99854.72;1612901;86;22236;-63
2021/09/14 04:03:14;;;;;;;5.10;3.10;;;;;;;13.61;87.41;99858.11;1622938;87;21031;-62
2021/09/14 04:05:47;;;;;;;4.03;2.45;;;;;;;13.63;87.37;99863.25;1652445;85;21173;-63
2021/09/14 04:10:43;;;;;;;4.65;2.80;;;;;;;13.62;87.29;99867.66;1617136;88;21023;-63
2021/09/14 04:13:11;;;;;;;6.75;3.17;;;;;;;13.57;87.21;99873.63;1640568;86;23251;-62
2021/09/14 04:15:37;;;;;;;4.62;2.98;;;;;;;13.56;87.32;99879.81;1638413;86;21071;-63
2021/09/14 04:18:04;;;;;;;9.98;2.95;;;;;;;13.56;87.36;99877.66;1632007;86;21512;-62
2021/09/14 04:20:32;;;;;;;5.17;2.70;;;;;;;13.56;87.45;99870.63;1628016;86;21051;-63
2021/09/14 04:22:59;;;;;;;4.28;2.60;;;;;;;13.57;87.39;99871.00;1623362;86;21099;-63
2021/09/14 04:25:26;;;;;;;3.90;3.10;;;;;;;13.55;87.34;99872.02;1620649;86;24531;-63
2021/09/14 04:27:53;;;;;;;3.58;2.92;;;;;;;13.53;87.42;99872.59;1627435;86;21025;-63
2021/09/14 04:30:19;;;;;;;4.85;2.90;;;;;;;13.51;87.42;99877.91;1616110;86;20986;-63
2021/09/14 04:32:46;;;;;;;6.13;2.80;;;;;;;13.49;87.44;99876.31;1626122;86;21469;-63
2021/09/14 04:35:12;;;;;;;3.53;2.93;;;;;;;13.52;87.61;99875.66;1619263;86;21072;-62
2021/09/14 04:37:39;;;;;;;5.27;3.30;;;;;;;13.55;87.62;99879.41;1619118;86;21511;-63
2021/09/14 04:40:08;;;;;;;7.90;3.50;;;;;;;13.57;87.58;99876.72;1626726;86;20974;-63
2021/09/14 04:42:34;;;;;;;6.05;2.90;;;;;;;13.59;87.64;99877.48;1624932;86;20988;-63
2021/09/14 04:45:01;;;;;;;6.53;2.67;;;;;;;13.59;87.45;99885.36;1625879;86;20989;-62
2021/09/14 04:47:27;;;;;;;5.77;2.50;;;;;;;13.54;87.36;99884.77;1627024;86;21018;-62
2021/09/14 04:49:54;;;;;;;3.17;2.47;;;;;;;13.54;87.54;99882.14;1621325;86;21485;-63
2021/09/14 04:52:20;;;;;;;5.95;2.42;;;;;;;13.57;87.56;99882.80;1628593;86;20918;-63
2021/09/14 04:54:47;;;;;;;4.83;2.47;;;;;;;13.58;87.60;99891.08;1627062;86;21548;-62
2021/09/14 04:57:14;;;;;;;17.17;3.52;;;;;;;13.59;87.59;99891.44;1629915;86;21080;-62
2021/09/14 04:59:41;;;;;;;13.73;3.10;;;;;;;13.58;87.52;99889.77;1624471;86;21616;-63
2021/09/14 05:02:07;;;;;;;8.43;2.57;;;;;;;13.59;87.61;99891.44;1571474;89;21337;-63
2021/09/14 05:04:34;;;;;;;6.87;2.55;;;;;;;13.59;87.54;99888.82;1610829;87;21541;-63
2021/09/14 05:07:01;;;;;;;5.42;2.80;;;;;;;13.58;87.48;99891.08;1608706;87;20978;-63
2021/09/14 05:09:27;;;;;;;7.15;2.52;;;;;;;13.61;87.64;99900.08;1607128;87;20923;-63
2021/09/14 05:11:54;;;;;;;3.60;2.30;;;;;;;13.65;87.76;99898.12;1612795;87;21041;-63
2021/09/14 05:14:21;;;;;;;6.85;2.55;;;;;;;13.65;87.57;99893.71;1605166;87;21992;-63
2021/09/14 05:16:48;;;;;;;3.15;2.62;;;;;;;13.68;87.67;99889.23;1568565;89;21521;-62
2021/09/14 05:19:19;;;;;;;3.70;2.43;;;;;;;13.74;87.77;99883.62;1602607;88;21320;-63
2021/09/14 05:21:47;;;;;;;4.50;2.37;;;;;;;13.88;87.91;99890.22;1568715;89;21044;-63
2021/09/14 05:24:16;;;;;;;6.33;2.40;;;;;;;13.88;87.91;99890.22;1602579;87;21014;-62
2021/09/14 05:26:43;;;;;;;3.27;2.42;;;;;;;13.90;87.69;99891.46;1600539;87;21119;-61
2021/09/14 05:29:10;;;;;;;;;;;;;;;13.90;87.76;99882.28;1615966;87;21025;-62
2021/09/14 05:31:37;;;;;;;4.20;2.50;;;;;;;13.96;87.54;99888.47;1617051;87;20098;-62
2021/09/14 05:34:04;;;;;;;3.62;2.62;;;;;;;13.97;87.70;99887.05;1609688;87;21540;-61
2021/09/14 05:36:31;;;;;;;3.92;2.33;;;;;;;14.08;87.88;99891.20;1611027;87;21039;-62
2021/09/14 05:38:58;;;;;;;13.20;2.20;;;;;;;14.13;87.56;99891.42;1610915;87;21090;-62
2021/09/14 05:41:25;;;;;;;5.15;2.40;;;;;;;14.23;87.84;99889.95;1601435;87;21174;-62
2021/09/14 05:43:53;;;;;;;20.45;5.28;;;;;;;14.37;87.93;99888.65;1605894;87;21049;-62
2021/09/14 05:46:20;;;;;;;9.68;3.27;;;;;;;14.54;87.98;99895.06;1612406;88;21913;-62
2021/09/14 05:48:46;;;;;;;8.08;3.37;;;;;;;14.68;87.85;99896.84;1606845;87;21081;-62
2021/09/14 05:51:13;;;;;;;42.50;8.40;;;;;;;14.79;87.71;99897.51;1626832;87;21124;-62
2021/09/14 05:53:40;;;;;;;50.05;14.95;;;;;;;14.92;87.74;99895.78;1590136;89;21022;-61
2021/09/14 05:56:07;;;;;;;20.68;4.47;;;;;;;15.10;87.90;99904.80;1618374;87;21000;-62
2021/09/14 05:58:34;;;;;;;4.67;2.85;;;;;;;15.29;87.71;99900.06;1618972;87;21509;-62
2021/09/14 06:01:01;;;;;;;6.70;2.50;;;;;;;15.44;87.36;99902.16;1603996;87;21065;-62
2021/09/14 06:03:29;;;;;;;87.33;20.88;;;;;;;15.62;87.40;99902.75;1615623;87;22255;-61
2021/09/14 06:06:00;;;;;;;22.48;9.10;;;;;;;15.85;87.62;99910.03;1590762;89;20994;-61
2021/09/14 06:08:48;;;;;;;;;;;;;;;;;;;;;
2021/09/14 06:11:07;;;;;;;77.35;14.23;;;;;;;16.13;87.04;99910.80;1598247;87;21587;-62
2021/09/14 06:13:40;;;;;;;50.83;11.93;;;;;;;16.21;86.98;99904.53;1605455;88;21043;-62
2021/09/14 06:16:08;;;;;;;15.23;4.67;;;;;;;16.23;86.68;99906.60;1603347;88;21167;-62
2021/09/14 06:18:36;;;;;;;68.20;7.37;;;;;;;16.19;86.23;99910.41;1603511;88;21294;-62
2021/09/14 06:21:05;;;;;;;57.65;10.65;;;;;;;16.11;86.42;99909.59;1610752;87;20956;-62
2021/09/14 06:23:33;;;;;;;58.23;10.23;;;;;;;16.05;86.33;99909.17;1601583;88;20939;-61
2021/09/14 06:26:08;;;;;;;;;;;;;;;15.87;86.10;99916.02;1613554;88;21178;-61
2021/09/14 06:28:35;;;;;;;15.25;2.80;;;;;;;15.76;86.10;99913.24;1605185;87;21947;-62
2021/09/14 06:31:05;;;;;;;4.83;2.70;;;;;;;15.57;85.86;99915.36;1589733;88;24774;-62
2021/09/14 06:33:34;;;;;;;62.50;12.70;;;;;;;15.44;85.98;99912.21;1603752;87;21490;-61
2021/09/14 06:36:00;;;;;;;3.25;2.27;;;;;;;15.30;86.09;99910.94;1602443;87;21064;-61
2021/09/14 06:38:27;;;;;;;15.65;2.47;;;;;;;15.23;86.06;99912.27;1608003;88;21059;-61
2021/09/14 06:40:54;;;;;;;8.55;2.02;;;;;;;15.16;86.09;99921.50;1603629;88;21510;-62
2021/09/14 06:43:21;;;;;;;19.05;3.62;;;;;;;15.15;86.10;99922.41;1605057;88;21077;-62
2021/09/14 06:45:48;;;;;;;17.10;2.47;;;;;;;15.25;86.34;99924.85;1607185;87;25694;-61
2021/09/14 06:48:16;;;;;;;2.87;1.50;;;;;;;15.31;86.16;99919.67;1603969;88;20964;-61
2021/09/14 06:50:43;;;;;;;91.08;9.43;;;;;;;15.37;86.09;99920.11;1604816;86;21600;-61
2021/09/14 06:53:11;;;;;;;13.05;1.80;;;;;;;15.41;85.78;99922.94;1606271;87;21134;-61
2021/09/14 06:55:38;;;;;;;18.17;3.33;;;;;;;15.40;85.76;99922.58;1607310;88;21163;-61
2021/09/14 06:58:04;;;;;;;37.98;2.77;;;;;;;15.53;86.05;99919.14;1588517;89;20967;-62
2021/09/14 07:00:31;;;;;;;14.65;2.60;;;;;;;15.70;85.92;99917.60;1597646;86;20946;-61
2021/09/14 07:02:58;;;;;;;9.13;1.80;;;;;;;15.80;85.62;99923.97;1610144;87;21190;-62
2021/09/14 07:05:25;;;;;;;37.25;3.90;;;;;;;15.82;85.42;99932.61;1610849;87;21348;-61
2021/09/14 07:07:54;;;;;;;46.37;4.80;;;;;;;15.84;85.45;99925.91;1606723;87;21178;-61
2021/09/14 07:10:21;;;;;;;96.20;11.35;;;;;;;15.92;85.51;99930.68;1643111;86;22074;-62
2021/09/14 07:12:48;;;;;;;34.90;3.55;;;;;;;15.99;85.57;99926.67;1596011;86;21069;-62
2021/09/14 07:15:15;;;;;;;15.23;2.62;;;;;;;16.14;85.53;99928.30;1624149;86;21128;-62
2021/09/14 07:17:43;;;;;;;21.45;4.05;;;;;;;16.24;85.42;99926.72;1643324;85;22098;-62
2021/09/14 07:20:11;;;;;;;22.70;2.80;;;;;;;16.34;85.30;99926.48;1650960;86;21133;-62
2021/09/14 07:22:39;;;;;;;95.28;7.45;;;;;;;16.41;85.20;99926.05;1646833;85;22198;-62
2021/09/14 07:25:08;;;;;;;;;;;;;;;16.52;85.40;99929.67;1618562;88;21007;-62
2021/09/14 07:27:39;;;;;;;62.08;6.90;;;;;;;16.63;85.15;99933.34;1608735;87;20382;-61
2021/09/14 07:30:06;;;;;;;34.40;6.95;;;;;;;16.59;84.97;99933.20;1639103;86;21746;-62
2021/09/14 07:33:06;;;;;;;71.35;9.85;;;;;;;16.70;84.90;99934.13;1826692;77;22733;-61
2021/09/14 07:35:34;;;;;;;32.23;7.25;;;;;;;16.79;85.18;99932.68;1793677;77;21003;-61
2021/09/14 07:38:03;;;;;;;34.55;6.87;;;;;;;16.83;84.64;99933.30;1799910;78;21469;-61
2021/09/14 07:40:29;;;;;;;82.05;17.67;;;;;;;16.78;84.52;99938.44;1796749;78;20981;-61
2021/09/14 07:42:57;;;;;;;62.60;9.53;;;;;;;16.91;84.76;99928.34;1794152;77;21527;-61
2021/09/14 07:45:31;;;;;;;;;;;;;;;17.06;84.74;99931.70;1801218;77;21513;-62
2021/09/14 07:47:58;;;;;;;79.35;8.35;;;;;;;17.17;84.26;99932.63;1792743;77;20177;-61
2021/09/14 07:50:25;;;;;;;21.23;3.10;;;;;;;17.19;84.21;99937.78;1796026;78;21070;-61
2021/09/14 07:52:55;;;;;;;51.60;4.45;;;;;;;17.29;84.17;99935.34;1780441;78;20923;-62
2021/09/14 07:55:24;;;;;;;158.45;15.75;;;;;;;17.47;84.23;99939.27;1792377;78;20997;-61
2021/09/14 07:57:55;;;;;;;52.83;5.53;;;;;;;17.74;84.53;99935.59;1801197;78;21464;-61
2021/09/14 08:00:23;;;;;;;84.17;12.18;;;;;;;18.07;84.37;99939.72;1797538;78;20998;-61
2021/09/14 08:03:01;;;;;;;;;;;;;;;18.46;84.24;99941.63;1781079;78;21987;-61
2021/09/14 08:05:31;;;;;;;51.25;5.60;;;;;;;18.63;83.22;99937.68;1794204;78;20089;-62
2021/09/14 08:07:58;;;;;;;18.77;2.80;;;;;;;18.76;83.04;99937.58;1792123;78;21010;-62
2021/09/14 08:10:24;;;;;;;12.55;1.57;;;;;;;19.04;83.23;99935.42;1784088;78;20938;-63
2021/09/14 08:12:51;;;;;;;14.45;2.40;;;;;;;19.24;82.69;99941.31;1802984;78;20942;-62
2021/09/14 08:15:22;;;;;;;95.17;9.23;;;;;;;19.59;82.85;99941.59;1795470;78;21659;-62
2021/09/14 08:17:50;;;;;;;14.95;1.57;;;;;;;19.80;82.19;99940.33;1799457;78;21221;-62
2021/09/14 08:20:18;;;;;;;23.80;2.65;;;;;;;19.72;80.98;99942.31;1792669;77;21002;-63
2021/09/14 08:22:49;;;;;;;78.17;6.45;;;;;;;19.68;81.26;99940.37;1747538;77;21056;-63
2021/09/14 08:25:17;;;;;;;64.75;4.78;;;;;;;19.66;81.05;99940.14;1797187;78;20982;-63
2021/09/14 08:27:44;;;;;;;54.13;3.87;;;;;;;19.76;81.23;99945.05;1794692;78;21552;-63
2021/09/14 08:30:12;;;;;;;41.58;8.55;;;;;;;19.89;81.14;99945.73;1773712;78;20959;-64
2021/09/14 08:32:39;;;;;;;167.15;11.03;;;;;;;20.00;80.88;99947.98;1785040;78;20978;-64
2021/09/14 08:35:06;;;;;;;125.85;12.43;;;;;;;20.02;80.73;99952.16;1759543;80;21710;-62
2021/09/14 08:37:34;;;;;;;236.77;21.33;;;;;;;20.00;80.46;99958.59;1796811;78;20935;-63
2021/09/14 08:40:00;;;;;;;14.30;2.85;;;;;;;20.02;80.28;99955.30;1779760;78;21100;-63
2021/09/14 08:42:31;;;;;;;45.67;5.70;;;;;;;20.11;80.08;99958.54;1798255;77;28282;-62
2021/09/14 08:44:58;;;;;;;40.38;4.65;;;;;;;20.00;79.43;99963.89;1769676;78;20978;-62
2021/09/14 08:47:29;;;;;;;87.12;7.05;;;;;;;19.92;79.11;99962.36;1793928;78;21044;-61
2021/09/14 08:49:57;;;;;;;73.90;6.30;;;;;;;19.79;78.87;99958.05;1798592;78;20977;-62
2021/09/14 08:52:24;;;;;;;33.85;3.42;;;;;;;19.76;79.31;99956.97;1799420;78;21449;-62
2021/09/14 08:54:52;;;;;;;34.43;5.10;;;;;;;19.99;79.79;99959.54;1796596;78;21036;-61
2021/09/14 08:57:19;;;;;;;116.67;14.15;;;;;;;20.24;79.52;99955.69;1761880;78;20996;-62
2021/09/14 08:59:50;;;;;;;54.03;6.50;;;;;;;20.29;78.86;99956.98;1785807;78;21477;-62
2021/09/14 09:02:18;;;;;;;85.40;10.60;;;;;;;20.07;77.87;99954.44;1798808;78;20915;-62
2021/09/14 09:05:07;;;;;;;245.17;34.08;;;;;;;19.87;77.74;99964.05;1793463;78;20987;-62
2021/09/14 09:07:40;;;;;;;72.82;10.58;;;;;;;19.61;77.57;99955.56;1791943;78;20936;-62
2021/09/14 09:10:16;;;;;;;62.30;6.55;;;;;;;19.48;78.00;99960.16;1798580;78;20938;-62
2021/09/14 09:12:49;;;;;;;16.40;2.30;;;;;;;19.67;78.25;99957.73;1765407;78;21020;-62
2021/09/14 09:15:33;;;;;;;43.50;4.30;;;;;;;19.88;77.99;99960.42;1772815;78;20906;-61
2021/09/14 09:18:12;;;;;;;9.93;1.52;;;;;;;19.95;77.53;99966.08;1787932;78;22307;-62
2021/09/14 09:20:41;;;;;;;4.75;1.12;;;;;;;19.86;76.95;99965.86;1782033;78;20979;-62
2021/09/14 09:23:13;;;;;;;24.02;3.65;;;;;;;19.80;77.14;99969.48;1791496;78;21012;-62
2021/09/14 09:25:40;;;;;;;45.30;4.28;;;;;;;19.91;77.30;99965.46;1782213;78;20977;-62
2021/09/14 09:28:18;;;;;;;131.10;9.90;;;;;;;19.87;76.77;99971.51;1765430;79;21035;-62
2021/09/14 09:30:59;;;;;;;33.02;5.15;;;;;;;19.82;76.74;99969.71;1791859;78;21656;-61
2021/09/14 09:33:32;;;;;;;35.75;4.47;;;;;;;19.71;76.48;99969.75;1796208;77;21474;-62
2021/09/14 09:36:06;;;;;;;63.52;5.78;;;;;;;19.56;76.42;99973.62;1768965;79;21515;-62
2021/09/14 09:38:51;;;;;;;88.07;7.85;;;;;;;19.39;76.34;99972.33;1788054;79;21011;-63
2021/09/14 09:41:20;;;;;;;24.87;2.67;;;;;;;19.30;76.29;99968.62;1791754;77;21126;-61
2021/09/14 09:43:49;;;;;;;55.85;7.10;;;;;;;19.41;75.95;99977.03;1791718;78;21301;-61
2021/09/14 09:46:20;;;;;;;5.97;1.85;;;;;;;19.01;75.13;99971.73;1786419;77;21334;-62
2021/09/14 09:48:49;;;;;;;68.65;5.80;;;;;;;19.11;76.18;99973.68;1784139;79;20992;-62
2021/09/14 09:51:17;;;;;;;12.95;2.05;;;;;;;19.37;76.50;99972.44;1762071;79;21013;-62
2021/09/14 09:53:46;;;;;;;23.00;2.42;;;;;;;19.33;75.32;99972.34;1789517;79;20989;-62
2021/09/14 09:56:12;;;;;;;55.50;4.75;;;;;;;19.29;75.85;99974.86;1752208;79;21953;-62
2021/09/14 09:58:44;;;;;;;95.55;7.53;;;;;;;19.41;75.80;99968.59;1798061;78;21009;-61
2021/09/14 10:01:26;;;;;;;45.55;4.75;;;;;;;19.45;75.52;99967.38;1766373;79;21453;-60
2021/09/14 10:04:04;;;;;;;119.50;10.85;;;;;;;19.54;75.26;99962.30;1753236;79;21600;-61
2021/09/14 10:06:36;;;;;;;70.28;7.15;;;;;;;19.49;75.41;99961.83;1799217;78;20984;-61
2021/09/14 10:09:06;;;;;;;54.25;5.08;;;;;;;19.58;75.29;99970.37;1801513;78;21925;-61
2021/09/14 10:11:36;;;;;;;113.10;12.00;;;;;;;19.43;74.90;99969.30;1788957;78;20993;-62
2021/09/14 10:14:14;;;;;;;34.40;5.80;;;;;;;19.32;75.08;99964.02;1794558;79;20988;-62
2021/09/14 10:16:46;;;;;;;52.33;5.03;;;;;;;19.25;75.17;99964.16;1789666;79;21600;-61
2021/09/14 10:19:33;;;;;;;66.47;10.78;;;;;;;19.16;74.57;99974.16;1788561;79;21044;-61
2021/09/14 10:22:06;;;;;;;62.00;9.10;;;;;;;18.64;73.93;99976.38;1792660;78;21194;-61
2021/09/14 10:24:38;;;;;;;22.02;3.87;;;;;;;18.21;73.79;99971.72;1790939;79;20976;-60
2021/09/14 10:27:15;;;;;;;10.70;1.67;;;;;;;17.98;74.53;99973.44;1785075;79;21430;-60
2021/09/14 10:29:42;;;;;;;4.28;1.75;;;;;;;18.03;75.04;99967.31;1790756;77;20899;-62
2021/09/14 10:32:17;;;;;;;;;;;;;;;18.03;74.11;99975.23;1803048;77;20930;-61
2021/09/14 10:34:56;;;;;;;5.75;1.60;;;;;;;18.06;75.02;99976.36;1806909;78;20485;-61
2021/09/14 10:37:32;;;;;;;122.58;20.30;;;;;;;18.11;74.46;99975.51;1798960;78;21038;-60
2021/09/14 10:40:12;;;;;;;5.80;1.92;;;;;;;18.26;74.93;99979.28;1807742;78;20969;-61
2021/09/14 10:42:43;;;;;;;18.67;2.55;;;;;;;18.31;74.46;99972.69;1802140;78;20942;-61
2021/09/14 10:45:16;;;;;;;35.08;3.58;;;;;;;18.48;74.47;99974.05;1804172;78;20973;-62
2021/09/14 10:47:48;;;;;;;198.80;29.23;;;;;;;18.73;75.11;99965.08;1804331;77;21916;-59
2021/09/14 10:50:28;;;;;;;6.03;1.77;;;;;;;19.12;74.89;99972.70;1808838;78;21021;-60
2021/09/14 10:53:02;;;;;;;83.50;7.42;;;;;;;18.96;72.34;99969.09;1806790;78;21020;-61
2021/09/14 10:55:31;;;;;;;31.20;4.12;;;;;;;18.77;73.87;99969.70;1806206;77;20914;-60
2021/09/14 10:58:02;;;;;;;26.73;4.53;;;;;;;19.01;74.03;99970.41;1803415;77;21050;-62
2021/09/14 11:00:39;;;;;;;9.28;1.50;;;;;;;19.07;74.11;99966.93;1804472;78;21608;-61
2021/09/14 11:03:12;;;;;;;19.50;2.02;;;;;;;18.94;72.58;99970.55;1807874;78;21515;-61
2021/09/14 11:05:39;;;;;;;31.00;2.70;;;;;;;18.92;72.88;99975.11;1800415;78;20942;-61
2021/09/14 11:08:08;;;;;;;4.62;1.42;;;;;;;18.94;73.37;99981.14;1807798;77;21020;-61
2021/09/14 11:10:39;;;;;;;2.58;1.02;;;;;;;19.12;73.18;99976.19;1799707;77;20943;-62
2021/09/14 11:13:09;;;;;;;1.45;0.78;;;;;;;19.03;72.34;99976.09;1795439;78;21528;-62
2021/09/14 11:15:36;;;;;;;3.55;0.55;;;;;;;18.74;71.35;99976.56;1812049;77;20996;-63
2021/09/14 11:18:03;;;;;;;2.45;0.70;;;;;;;18.57;72.85;99981.79;1798707;78;20974;-61
2021/09/14 11:20:30;;;;;;;4.65;1.10;;;;;;;18.59;73.19;99975.05;1801955;78;20960;-62
2021/09/14 11:23:00;;;;;;;2.65;1.00;;;;;;;18.71;73.32;99986.02;1806628;78;21046;-60
2021/09/14 11:25:30;;;;;;;7.25;0.80;;;;;;;18.54;72.31;99978.90;1802679;78;21634;-61
2021/09/14 11:28:06;;;;;;;1.77;0.82;;;;;;;18.51;73.23;99975.17;1802902;78;21613;-61
2021/09/14 11:30:35;;;;;;;3.50;0.90;;;;;;;18.71;73.32;99980.73;1804705;78;20994;-62
2021/09/14 11:33:04;;;;;;;3.83;1.05;;;;;;;18.43;71.88;99986.80;1804288;78;20932;-62
2021/09/14 11:35:36;;;;;;;4.60;1.00;;;;;;;18.31;73.11;99982.42;1766020;79;21534;-61
2021/09/14 11:38:11;;;;;;;2.58;0.70;;;;;;;18.32;72.80;99990.25;1794504;78;21116;-62
2021/09/14 11:40:59;;;;;;;4.22;0.72;;;;;;;18.18;73.01;99981.68;1793378;78;20969;-61
2021/09/14 11:43:29;;;;;;;1.95;0.88;;;;;;;17.93;73.10;99984.81;1791933;78;21539;-60
2021/09/14 11:46:12;;;;;;;1.30;0.53;;;;;;;17.93;73.58;99983.49;1795556;77;21560;-61
2021/09/14 11:48:39;;;;;;;6.22;0.85;;;;;;;17.72;72.56;99983.70;1793788;78;21080;-61
2021/09/14 11:51:10;;;;;;;2.30;0.82;;;;;;;17.40;73.07;99990.84;1791787;77;21612;-61
2021/09/14 11:53:40;;;;;;;2.30;1.00;;;;;;;17.37;73.84;99988.42;1791617;78;20942;-61
2021/09/14 11:56:13;;;;;;;3.00;0.78;;;;;;;17.32;73.91;99999.77;1760318;78;21615;-61
2021/09/14 11:58:47;;;;;;;2.83;1.02;;;;;;;17.33;74.09;99993.53;1791930;78;21158;-61
2021/09/14 12:01:18;;;;;;;2.65;0.95;;;;;;;17.17;74.05;99988.52;1760119;77;21005;-61
2021/09/14 12:03:52;;;;;;;2.40;0.85;;;;;;;17.09;74.34;99993.00;1794880;78;21121;-61
2021/09/14 12:06:30;;;;;;;2.50;1.20;;;;;;;17.10;74.82;99994.67;1797774;78;21599;-61
2021/09/14 12:09:08;;;;;;;2.90;1.10;;;;;;;17.03;74.80;99998.72;1794835;78;21021;-61
2021/09/14 12:11:35;;;;;;;2.45;0.88;;;;;;;17.02;74.81;99998.80;1794993;78;20930;-61
2021/09/14 12:14:06;;;;;;;2.90;1.10;;;;;;;17.05;75.10;99995.95;1795622;78;20938;-62
2021/09/14 12:16:42;;;;;;;2.77;1.10;;;;;;;17.03;75.35;99994.76;1763443;80;21099;-61
2021/09/14 12:19:10;;;;;;;2.22;1.00;;;;;;;16.93;75.28;99995.02;1758363;79;21084;-61
2021/09/14 12:21:37;;;;;;;2.37;1.30;;;;;;;16.84;75.24;99998.30;1773325;79;21025;-61
2021/09/14 12:24:04;;;;;;;;;;;;;;;16.64;75.61;100003.11;1796663;78;20973;-61
2021/09/14 12:26:38;;;;;;;3.25;1.20;;;;;;;16.43;75.77;99995.33;1759347;79;20144;-61
2021/09/14 12:29:07;;;;;;;3.35;1.10;;;;;;;16.30;76.29;100002.74;1806216;78;21517;-61
2021/09/14 12:31:34;;;;;;;3.95;1.37;;;;;;;16.16;76.09;99998.86;1803884;78;21521;-61
2021/09/14 12:34:01;;;;;;;2.70;0.98;;;;;;;16.07;76.34;100000.77;1805745;78;20931;-60